createdAt,value
2023-11-28T00:01:57.023Z,84.72
2023-11-28T00:04:25.178Z,85.03
2023-11-28T00:06:53.795Z,84.83
2023-11-28T00:09:20.817Z,84.81
2023-11-28T00:11:48.910Z,84.91
2023-11-28T00:14:16.186Z,84.72
2023-11-28T00:16:43.277Z,85.10
2023-11-28T00:19:10.466Z,84.64
2023-11-28T00:21:37.653Z,85.14
2023-11-28T00:24:07.481Z,85.02
2023-11-28T00:26:34.797Z,85.24
2023-11-28T00:29:02.314Z,84.94
2023-11-28T00:31:29.288Z,84.78
2023-11-28T00:33:56.530Z,84.88
2023-11-28T00:36:23.786Z,85.10
2023-11-28T00:38:50.678Z,84.97
2023-11-28T00:41:17.868Z,84.86
2023-11-28T00:43:45.139Z,84.97
2023-11-28T00:46:15.328Z,84.85
2023-11-28T00:48:42.193Z,85.01
2023-11-28T00:51:09.370Z,84.80
2023-11-28T00:53:36.542Z,85.04
2023-11-28T00:56:03.535Z,84.83
2023-11-28T00:58:30.853Z,84.64
2023-11-28T01:00:57.806Z,84.85
2023-11-28T01:03:24.759Z,84.67
2023-11-28T01:05:51.699Z,84.79
2023-11-28T01:08:18.534Z,84.98
2023-11-28T01:10:45.560Z,84.83
2023-11-28T01:13:12.887Z,84.97
2023-11-28T01:15:39.826Z,84.78
2023-11-28T01:18:08.427Z,84.92
2023-11-28T01:20:35.432Z,85.08
2023-11-28T01:23:02.515Z,85.03
2023-11-28T01:25:29.493Z,85.20
2023-11-28T01:27:57.106Z,85.20
2023-11-28T01:30:24.129Z,85.27
2023-11-28T01:32:51.489Z,85.21
2023-11-28T01:35:19.589Z,85.25
2023-11-28T01:37:46.605Z,85.27
2023-11-28T01:40:17.982Z,85.11
2023-11-28T01:42:47.994Z,84.87
2023-11-28T01:45:14.971Z,85.09
2023-11-28T01:47:45.101Z,85.06
2023-11-28T01:50:12.483Z,84.96
2023-11-28T01:52:39.776Z,84.85
2023-11-28T01:55:07.279Z,84.65
2023-11-28T01:57:34.128Z,84.69
2023-11-28T02:00:02.038Z,84.73
2023-11-28T02:02:31.526Z,84.53
2023-11-28T02:05:00.363Z,84.24
2023-11-28T02:07:27.219Z,84.02
2023-11-28T02:09:57.626Z,83.98
2023-11-28T02:12:24.597Z,83.96
2023-11-28T02:14:51.630Z,83.51
2023-11-28T02:17:18.612Z,83.50
2023-11-28T02:19:48.703Z,83.30
2023-11-28T02:22:15.844Z,82.93
2023-11-28T02:24:44.186Z,82.80
2023-11-28T02:27:11.050Z,82.69
2023-11-28T02:29:38.034Z,82.51
2023-11-28T02:32:05.359Z,82.42
2023-11-28T02:34:32.542Z,82.18
2023-11-28T02:36:59.644Z,82.04
2023-11-28T02:39:29.420Z,81.48
2023-11-28T02:41:56.359Z,81.27
2023-11-28T02:44:23.274Z,81.14
2023-11-28T02:46:50.287Z,80.60
2023-11-28T02:49:17.320Z,80.46
2023-11-28T02:51:44.164Z,80.36
2023-11-28T02:54:11.050Z,80.27
2023-11-28T02:56:37.901Z,80.06
2023-11-28T02:59:04.873Z,79.74
2023-11-28T03:01:32.145Z,79.66
2023-11-28T03:03:59.136Z,79.50
2023-11-28T03:06:26.018Z,79.65
2023-11-28T03:08:54.173Z,79.42
2023-11-28T03:11:21.108Z,79.50
2023-11-28T03:13:48.289Z,79.24
2023-11-28T03:16:15.405Z,79.17
2023-11-28T03:18:42.383Z,79.21
2023-11-28T03:21:09.835Z,79.22
2023-11-28T03:23:36.729Z,79.02
2023-11-28T03:26:03.984Z,79.02
2023-11-28T03:28:31.152Z,79.08
2023-11-28T03:30:58.170Z,79.15
2023-11-28T03:33:25.914Z,78.85
2023-11-28T03:35:52.901Z,78.90
2023-11-28T03:38:19.868Z,78.83
2023-11-28T03:40:46.757Z,78.83
2023-11-28T03:43:13.908Z,79.15
2023-11-28T03:45:40.785Z,79.06
2023-11-28T03:48:07.848Z,78.91
2023-11-28T03:50:34.863Z,79.21
2023-11-28T03:53:01.922Z,78.99
2023-11-28T03:55:30.433Z,78.88
2023-11-28T03:57:57.399Z,79.03
2023-11-28T04:00:24.509Z,78.66
2023-11-28T04:02:51.437Z,78.58
2023-11-28T04:05:19.584Z,78.77
2023-11-28T04:07:46.703Z,78.90
2023-11-28T04:10:14.490Z,78.78
2023-11-28T04:12:41.936Z,78.93
2023-11-28T04:15:09.765Z,78.76
2023-11-28T04:17:37.440Z,78.67
2023-11-28T04:20:04.768Z,78.64
2023-11-28T04:22:31.712Z,78.56
2023-11-28T04:24:58.773Z,78.47
2023-11-28T04:27:25.630Z,78.59
2023-11-28T04:29:53.768Z,78.60
2023-11-28T04:32:21.273Z,78.66
2023-11-28T04:34:49.065Z,78.50
2023-11-28T04:37:16.002Z,78.29
2023-11-28T04:39:46.848Z,78.42
2023-11-28T04:42:13.753Z,78.46
2023-11-28T04:44:41.538Z,78.73
2023-11-28T04:47:08.624Z,78.63
2023-11-28T04:49:35.617Z,78.53
2023-11-28T04:52:02.526Z,78.48
2023-11-28T04:54:29.428Z,78.44
2023-11-28T04:56:56.367Z,78.61
2023-11-28T04:59:23.827Z,78.51
2023-11-28T05:01:50.761Z,78.77
2023-11-28T05:04:17.773Z,78.71
2023-11-28T05:06:44.963Z,78.59
2023-11-28T05:09:12.740Z,78.65
2023-11-28T05:11:39.802Z,78.58
2023-11-28T05:14:06.971Z,78.63
2023-11-28T05:16:44.974Z,78.81
2023-11-28T05:19:16.734Z,78.88
2023-11-28T05:21:44.817Z,78.78
2023-11-28T05:24:12.109Z,79.04
2023-11-28T05:26:38.937Z,79.12
2023-11-28T05:29:06.679Z,79.20
2023-11-28T05:31:35.023Z,79.08
2023-11-28T05:34:02.489Z,79.09
2023-11-28T05:36:29.922Z,79.19
2023-11-28T05:38:56.783Z,79.08
2023-11-28T05:41:25.146Z,79.45
2023-11-28T05:43:53.627Z,79.65
2023-11-28T05:46:22.346Z,79.79
2023-11-28T05:48:49.991Z,79.90
2023-11-28T05:51:17.389Z,80.16
2023-11-28T05:53:44.629Z,79.78
2023-11-28T05:56:13.420Z,80.15
2023-11-28T05:58:40.816Z,80.02
2023-11-28T06:01:08.610Z,80.10
2023-11-28T06:03:36.746Z,80.42
2023-11-28T06:06:05.760Z,80.43
2023-11-28T06:08:33.679Z,80.70
2023-11-28T06:11:01.956Z,80.44
2023-11-28T06:13:29.348Z,80.68
2023-11-28T06:15:56.270Z,80.68
2023-11-28T06:18:23.361Z,81.02
2023-11-28T06:20:50.575Z,80.95
2023-11-28T06:23:20.412Z,81.25
2023-11-28T06:25:48.075Z,81.29
2023-11-28T06:28:14.980Z,81.25
2023-11-28T06:30:41.839Z,81.18
2023-11-28T06:33:08.935Z,81.37
2023-11-28T06:35:36.500Z,81.48
2023-11-28T06:38:03.783Z,81.41
2023-11-28T06:40:30.691Z,81.48
2023-11-28T06:43:00.481Z,81.66
2023-11-28T06:45:27.638Z,82.05
2023-11-28T06:47:54.767Z,81.99
2023-11-28T06:50:22.017Z,82.13
2023-11-28T06:52:49.289Z,82.17
2023-11-28T06:55:19.246Z,82.34
2023-11-28T06:57:47.925Z,82.32
2023-11-28T07:00:15.350Z,82.39
2023-11-28T07:02:42.300Z,82.62
2023-11-28T07:05:09.506Z,82.55
2023-11-28T07:07:36.743Z,82.79
2023-11-28T07:10:06.548Z,82.90
2023-11-28T07:12:33.438Z,82.96
2023-11-28T07:15:00.346Z,83.13
2023-11-28T07:17:27.801Z,83.19
2023-11-28T07:19:54.791Z,83.08
2023-11-28T07:22:22.367Z,83.60
2023-11-28T07:24:49.320Z,83.26
2023-11-28T07:27:16.536Z,83.33
2023-11-28T07:29:43.395Z,83.45
2023-11-28T07:32:10.410Z,83.37
2023-11-28T07:34:38.843Z,83.60
2023-11-28T07:37:05.799Z,83.85
2023-11-28T07:39:32.701Z,83.72
2023-11-28T07:41:59.646Z,83.75
2023-11-28T07:44:26.717Z,83.90
2023-11-28T07:46:53.999Z,83.85
2023-11-28T07:49:20.939Z,83.88
2023-11-28T07:51:47.841Z,84.25
2023-11-28T07:54:14.684Z,84.16
2023-11-28T07:56:41.555Z,84.15
2023-11-28T07:59:08.788Z,84.06
2023-11-28T08:01:35.771Z,84.07
2023-11-28T08:04:02.880Z,84.14
2023-11-28T08:06:29.837Z,84.19
2023-11-28T08:08:57.771Z,84.24
2023-11-28T08:11:25.072Z,84.27
2023-11-28T08:13:52.686Z,84.39
2023-11-28T08:16:19.970Z,84.38
2023-11-28T08:18:46.940Z,84.56
2023-11-28T08:21:13.861Z,84.44
2023-11-28T08:23:40.897Z,84.16
2023-11-28T08:26:09.011Z,84.47
2023-11-28T08:28:37.563Z,84.28
2023-11-28T08:31:05.116Z,84.42
2023-11-28T08:33:32.304Z,84.58
2023-11-28T08:35:59.338Z,84.30
2023-11-28T08:38:26.632Z,84.33
2023-11-28T08:40:53.705Z,84.33
2023-11-28T08:43:20.804Z,84.20
2023-11-28T08:45:47.759Z,84.30
2023-11-28T08:48:14.822Z,84.31
2023-11-28T08:50:41.879Z,84.22
2023-11-28T08:53:09.308Z,84.29
2023-11-28T08:55:36.207Z,84.13
2023-11-28T08:58:03.355Z,83.99
2023-11-28T09:00:31.101Z,84.03
2023-11-28T09:02:58.077Z,83.85
2023-11-28T09:05:25.203Z,83.86
2023-11-28T09:07:54.122Z,83.93
2023-11-28T09:10:22.460Z,83.94
2023-11-28T09:12:49.652Z,83.93
2023-11-28T09:15:17.433Z,83.65
2023-11-28T09:17:44.516Z,83.68
2023-11-28T09:20:11.916Z,83.80
2023-11-28T09:22:39.023Z,83.75
2023-11-28T09:25:06.472Z,83.71
2023-11-28T09:27:33.396Z,83.68
2023-11-28T09:30:00.358Z,83.44
2023-11-28T09:32:29.431Z,83.61
2023-11-28T09:34:56.470Z,83.42
2023-11-28T09:37:23.505Z,83.29
2023-11-28T09:39:50.965Z,83.47
2023-11-28T09:42:20.079Z,83.16
2023-11-28T09:44:48.795Z,83.20
2023-11-28T09:47:17.563Z,82.94
2023-11-28T09:49:45.898Z,83.15
2023-11-28T09:52:15.584Z,82.93
2023-11-28T09:54:42.628Z,82.98
2023-11-28T09:57:11.467Z,83.04
2023-11-28T09:59:44.887Z,82.69
2023-11-28T10:02:16.802Z,82.66
2023-11-28T10:04:44.519Z,82.80
2023-11-28T10:07:12.919Z,82.80
2023-11-28T10:09:43.004Z,82.73
2023-11-28T10:12:13.163Z,82.76
2023-11-28T10:14:41.079Z,82.61
2023-11-28T10:17:10.931Z,82.69
2023-11-28T10:19:38.017Z,82.59
2023-11-28T10:22:08.258Z,82.43
2023-11-28T10:24:35.521Z,82.48
2023-11-28T10:27:02.872Z,82.41
2023-11-28T10:29:30.240Z,82.25
2023-11-28T10:31:57.383Z,82.06
2023-11-28T10:34:24.358Z,81.90
2023-11-28T10:36:51.343Z,81.86
2023-11-28T10:39:20.925Z,81.83
2023-11-28T10:41:48.800Z,81.82
2023-11-28T10:44:15.915Z,81.63
2023-11-28T10:46:43.063Z,81.50
2023-11-28T10:49:10.517Z,81.54
2023-11-28T10:51:37.631Z,81.32
2023-11-28T10:54:11.284Z,81.16
2023-11-28T10:56:50.761Z,81.20
2023-11-28T10:59:37.442Z,80.94
2023-11-28T11:02:06.708Z,81.18
2023-11-28T11:04:34.219Z,80.80
2023-11-28T11:07:01.564Z,80.84
2023-11-28T11:09:28.864Z,80.87
2023-11-28T11:11:57.569Z,80.95
2023-11-28T11:14:46.912Z,80.77
2023-11-28T11:17:29.442Z,80.94
2023-11-28T11:19:57.967Z,81.01
2023-11-28T11:22:28.447Z,80.82
2023-11-28T11:24:55.607Z,80.61
2023-11-28T11:27:22.815Z,80.50
2023-11-28T11:29:49.944Z,80.63
2023-11-28T11:32:18.310Z,80.41
2023-11-28T11:34:49.817Z,80.72
2023-11-28T11:37:30.663Z,80.53
2023-11-28T11:39:57.550Z,80.57
2023-11-28T11:42:28.419Z,80.54
2023-11-28T11:45:04.374Z,80.21
2023-11-28T11:47:32.929Z,80.19
2023-11-28T11:50:02.190Z,80.31
2023-11-28T11:52:30.928Z,80.15
2023-11-28T11:55:13.875Z,80.24
2023-11-28T11:57:44.359Z,80.19
2023-11-28T12:00:12.778Z,79.98
2023-11-28T12:02:43.322Z,79.74
2023-11-28T12:05:12.280Z,79.87
2023-11-28T12:07:41.495Z,79.69
2023-11-28T12:10:13.891Z,79.57
2023-11-28T12:12:41.862Z,79.30
2023-11-28T12:15:11.677Z,79.77
2023-11-28T12:17:41.603Z,79.38
2023-11-28T12:20:10.548Z,79.65
2023-11-28T12:22:37.748Z,79.45
2023-11-28T12:25:04.935Z,79.30
2023-11-28T12:27:33.375Z,79.15
2023-11-28T12:30:05.407Z,78.82
2023-11-28T12:32:36.496Z,78.87
2023-11-28T12:35:06.297Z,78.43
2023-11-28T12:37:33.252Z,78.51
2023-11-28T12:40:01.382Z,78.21
2023-11-28T12:42:28.461Z,77.90
2023-11-28T12:44:58.849Z,77.51
2023-11-28T12:47:27.660Z,77.20
2023-11-28T12:49:54.852Z,76.92
2023-11-28T12:52:26.145Z,76.83
2023-11-28T12:54:53.480Z,76.58
2023-11-28T12:57:22.660Z,76.27
2023-11-28T12:59:49.941Z,75.62
2023-11-28T13:02:17.010Z,75.27
2023-11-28T13:04:44.197Z,75.00
2023-11-28T13:07:18.544Z,74.96
2023-11-28T13:09:54.144Z,74.53
2023-11-28T13:12:21.086Z,73.90
2023-11-28T13:14:48.127Z,73.88
2023-11-28T13:17:16.060Z,73.80
2023-11-28T13:19:43.110Z,73.41
2023-11-28T13:22:12.498Z,72.83
2023-11-28T13:24:39.503Z,72.92
2023-11-28T13:27:07.733Z,72.40
2023-11-28T13:29:39.528Z,72.30
2023-11-28T13:32:07.165Z,72.08
2023-11-28T13:34:34.340Z,71.78
2023-11-28T13:37:01.233Z,71.72
2023-11-28T13:39:28.413Z,71.32
2023-11-28T13:41:55.311Z,71.27
2023-11-28T13:44:23.611Z,71.36
2023-11-28T13:46:50.657Z,71.03
2023-11-28T13:49:17.736Z,71.13
2023-11-28T13:51:46.665Z,70.71
2023-11-28T13:54:13.647Z,70.57
2023-11-28T13:56:40.638Z,70.37
2023-11-28T13:59:07.629Z,70.69
2023-11-28T14:01:34.808Z,70.44
2023-11-28T14:04:01.939Z,70.61
2023-11-28T14:06:28.992Z,70.80
2023-11-28T14:08:55.951Z,71.40
2023-11-28T14:11:22.991Z,71.20
2023-11-28T14:13:50.167Z,71.47
2023-11-28T14:16:17.619Z,71.89
2023-11-28T14:18:45.082Z,71.89
2023-11-28T14:21:12.061Z,72.00
2023-11-28T14:23:39.390Z,71.90
2023-11-28T14:26:08.552Z,71.89
2023-11-28T14:28:35.553Z,72.04
2023-11-28T14:31:03.761Z,72.10
2023-11-28T14:33:31.107Z,72.12
2023-11-28T14:35:58.409Z,71.98
2023-11-28T14:38:25.769Z,72.24
2023-11-28T14:40:53.354Z,72.41
2023-11-28T14:43:20.344Z,72.35
2023-11-28T14:45:47.280Z,72.48
2023-11-28T14:48:14.554Z,72.43
2023-11-28T14:50:42.057Z,72.43
2023-11-28T14:53:12.669Z,72.50
2023-11-28T14:55:42.013Z,72.33
2023-11-28T14:58:09.376Z,72.19
2023-11-28T15:00:36.430Z,72.46
2023-11-28T15:03:06.303Z,72.53
2023-11-28T15:05:34.326Z,72.67
2023-11-28T15:08:32.323Z,72.50
2023-11-28T15:11:01.079Z,72.94
2023-11-28T15:13:29.794Z,72.88
2023-11-28T15:16:08.295Z,73.06
2023-11-28T15:18:36.988Z,72.72
2023-11-28T15:21:27.952Z,73.09
2023-11-28T15:23:55.825Z,72.92
2023-11-28T15:26:44.330Z,73.10
2023-11-28T15:29:24.440Z,73.04
2023-11-28T15:31:56.155Z,73.32
2023-11-28T15:34:25.767Z,73.39
2023-11-28T15:37:05.623Z,73.68
2023-11-28T15:39:36.287Z,73.55
2023-11-28T15:42:03.431Z,73.67
2023-11-28T15:44:30.738Z,73.81
2023-11-28T15:47:00.468Z,73.72
2023-11-28T15:49:39.953Z,74.07
2023-11-28T15:52:15.557Z,74.18
2023-11-28T15:54:43.615Z,74.09
2023-11-28T15:57:12.692Z,74.09
2023-11-28T15:59:42.431Z,74.27
2023-11-28T16:02:12.128Z,74.21
2023-11-28T16:04:41.208Z,74.46
2023-11-28T16:07:09.419Z,74.46
2023-11-28T16:09:37.845Z,74.33
2023-11-28T16:12:05.227Z,74.64
2023-11-28T16:14:32.438Z,74.62
2023-11-28T16:16:59.870Z,74.71
2023-11-28T16:19:27.211Z,74.66
2023-11-28T16:21:55.859Z,74.51
2023-11-28T16:24:22.896Z,74.58
2023-11-28T16:26:51.921Z,74.86
2023-11-28T16:29:34.539Z,74.77
2023-11-28T16:32:05.415Z,74.99
2023-11-28T16:34:33.729Z,74.95
2023-11-28T16:37:01.188Z,75.23
2023-11-28T16:39:33.864Z,74.93
2023-11-28T16:42:01.011Z,75.02
2023-11-28T16:44:28.971Z,75.48
2023-11-28T16:46:55.986Z,75.53
2023-11-28T16:49:23.194Z,75.57
2023-11-28T16:51:50.197Z,75.76
2023-11-28T16:54:17.933Z,75.49
2023-11-28T16:56:46.688Z,75.65
2023-11-28T16:59:14.392Z,75.76
2023-11-28T17:01:41.270Z,76.05
2023-11-28T17:04:09.280Z,75.89
2023-11-28T17:06:36.235Z,75.97
2023-11-28T17:09:03.205Z,76.16
2023-11-28T17:11:31.496Z,76.04
2023-11-28T17:13:58.490Z,76.18
2023-11-28T17:16:26.313Z,76.18
2023-11-28T17:18:53.283Z,76.33
2023-11-28T17:21:20.853Z,76.36
2023-11-28T17:23:48.533Z,76.70
2023-11-28T17:26:18.012Z,76.73
2023-11-28T17:28:48.461Z,77.05
2023-11-28T17:31:16.576Z,76.95
2023-11-28T17:33:43.719Z,77.29
2023-11-28T17:36:11.065Z,77.45
2023-11-28T17:38:38.537Z,77.74
2023-11-28T17:41:08.374Z,77.82
2023-11-28T17:43:35.344Z,77.69
2023-11-28T17:46:02.689Z,77.97
2023-11-28T17:48:30.063Z,77.98
2023-11-28T17:50:57.004Z,78.00
2023-11-28T17:53:24.614Z,77.85
2023-11-28T17:55:51.600Z,77.80
2023-11-28T17:58:18.593Z,78.11
2023-11-28T18:00:45.540Z,78.16
2023-11-28T18:03:12.674Z,78.15
2023-11-28T18:05:40.004Z,78.28
2023-11-28T18:08:07.139Z,78.46
2023-11-28T18:10:34.385Z,78.43
2023-11-28T18:13:03.810Z,78.84
2023-11-28T18:15:33.215Z,78.82
2023-11-28T18:18:03.968Z,78.90
2023-11-28T18:20:36.096Z,79.01
2023-11-28T18:23:03.156Z,79.13
2023-11-28T18:25:30.280Z,79.10
2023-11-28T18:27:58.700Z,79.25
2023-11-28T18:30:26.063Z,79.11
2023-11-28T18:32:53.364Z,79.33
2023-11-28T18:35:20.610Z,79.19
2023-11-28T18:37:47.543Z,79.24
2023-11-28T18:40:14.535Z,79.28
2023-11-28T18:42:41.644Z,79.35
2023-11-28T18:45:10.412Z,79.28
2023-11-28T18:47:37.933Z,79.35
2023-11-28T18:50:05.284Z,79.58
2023-11-28T18:52:32.250Z,79.55
2023-11-28T18:54:59.160Z,79.55
2023-11-28T18:57:26.474Z,79.69
2023-11-28T19:03:00.806Z,80.14
2023-11-28T19:05:32.810Z,80.09
2023-11-28T19:08:02.957Z,80.00
2023-11-28T19:10:31.116Z,80.29
2023-11-28T19:12:58.314Z,80.32
2023-11-28T19:15:25.517Z,80.15
2023-11-28T19:17:56.273Z,80.15
2023-11-28T19:20:23.976Z,80.07
2023-11-28T19:22:52.118Z,79.87
2023-11-28T19:25:19.040Z,79.70
2023-11-28T19:27:46.004Z,79.95
2023-11-28T19:30:15.967Z,79.83
2023-11-28T19:32:43.095Z,79.69
2023-11-28T19:35:11.532Z,79.54
2023-11-28T19:37:38.616Z,79.81
2023-11-28T19:40:06.156Z,80.00
2023-11-28T19:42:33.098Z,80.29
2023-11-28T19:45:00.035Z,80.02
2023-11-28T19:47:27.200Z,80.41
2023-11-28T19:49:54.310Z,80.47
2023-11-28T19:52:21.474Z,80.45
2023-11-28T19:54:48.639Z,80.72
2023-11-28T19:57:16.103Z,81.04
2023-11-28T19:59:46.133Z,80.91
2023-11-28T20:02:13.100Z,80.98
2023-11-28T20:04:40.199Z,81.19
2023-11-28T20:07:07.642Z,81.08
2023-11-28T20:09:35.752Z,80.65
2023-11-28T20:12:02.927Z,80.61
2023-11-28T20:14:29.895Z,80.79
2023-11-28T20:16:58.198Z,81.12
2023-11-28T20:19:27.579Z,81.04
2023-11-28T20:21:57.645Z,81.07
2023-11-28T20:24:24.699Z,81.38
2023-11-28T20:26:52.128Z,81.35
2023-11-28T20:29:19.382Z,81.53
2023-11-28T20:31:46.450Z,81.80
2023-11-28T20:34:13.516Z,81.67
2023-11-28T20:36:41.129Z,81.69
2023-11-28T20:39:08.640Z,81.65
2023-11-28T20:41:36.555Z,81.54
2023-11-28T20:44:04.236Z,81.57
2023-11-28T20:46:31.630Z,81.46
2023-11-28T20:48:58.654Z,81.49
2023-11-28T20:51:25.859Z,81.39
2023-11-28T20:53:53.017Z,81.63
2023-11-28T20:56:21.717Z,81.65
2023-11-28T20:58:50.028Z,81.56
2023-11-28T21:01:20.110Z,81.55
2023-11-28T21:03:47.514Z,81.41
2023-11-28T21:06:15.309Z,81.53
2023-11-28T21:08:43.703Z,81.65
2023-11-28T21:11:15.579Z,81.50
2023-11-28T21:13:42.814Z,81.59
2023-11-28T21:16:20.451Z,81.41
2023-11-28T21:18:47.587Z,81.25
2023-11-28T21:21:23.626Z,81.05
2023-11-28T21:23:50.642Z,81.04
2023-11-28T21:26:17.876Z,80.69
2023-11-28T21:28:45.038Z,80.62
2023-11-28T21:31:13.168Z,80.52
2023-11-28T21:33:40.238Z,80.61
2023-11-28T21:36:08.432Z,80.28
2023-11-28T21:38:35.890Z,80.20
2023-11-28T21:41:08.857Z,80.04
2023-11-28T21:43:39.275Z,79.98
2023-11-28T21:46:06.819Z,80.08
2023-11-28T21:48:34.018Z,80.08
2023-11-28T21:51:02.885Z,79.86
2023-11-28T21:53:30.398Z,79.65
2023-11-28T21:55:57.569Z,79.68
2023-11-28T21:58:24.545Z,79.73
2023-11-28T22:00:51.819Z,79.77
2023-11-28T22:03:19.064Z,79.74
2023-11-28T22:05:46.463Z,79.58
2023-11-28T22:08:14.199Z,79.62
2023-11-28T22:10:41.209Z,79.61
2023-11-28T22:13:08.398Z,79.72
2023-11-28T22:15:35.599Z,79.50
2023-11-28T22:18:02.798Z,79.58
2023-11-28T22:20:30.112Z,79.31
2023-11-28T22:22:59.686Z,79.32
2023-11-28T22:25:26.954Z,79.20
2023-11-28T22:27:54.530Z,79.50
2023-11-28T22:30:22.177Z,79.37
2023-11-28T22:32:50.122Z,79.14
2023-11-28T22:35:20.211Z,79.17
2023-11-28T22:37:48.427Z,78.90
2023-11-28T22:40:16.486Z,79.05
2023-11-28T22:42:44.143Z,79.01
2023-11-28T22:45:13.096Z,78.74
2023-11-28T22:47:40.934Z,78.64
2023-11-28T22:50:08.776Z,78.75
2023-11-28T22:52:35.886Z,79.05
2023-11-28T22:55:07.087Z,78.83
2023-11-28T22:57:34.033Z,79.31
2023-11-28T23:00:01.764Z,79.18
2023-11-28T23:02:30.775Z,79.02
2023-11-28T23:04:57.772Z,79.10
2023-11-28T23:07:25.810Z,78.96
2023-11-28T23:09:53.315Z,78.86
2023-11-28T23:12:20.372Z,78.96
2023-11-28T23:14:47.488Z,78.83
2023-11-28T23:17:14.788Z,78.87
2023-11-28T23:19:41.814Z,78.91
2023-11-28T23:22:09.195Z,79.00
2023-11-28T23:24:36.526Z,78.77
2023-11-28T23:27:03.583Z,78.88
2023-11-28T23:29:30.833Z,78.82
2023-11-28T23:31:57.908Z,78.60
2023-11-28T23:34:24.814Z,78.58
2023-11-28T23:36:52.676Z,78.60
2023-11-28T23:39:21.375Z,78.48
2023-11-28T23:41:48.820Z,78.40
2023-11-28T23:44:15.961Z,78.18
2023-11-28T23:46:43.001Z,78.26
2023-11-28T23:49:10.064Z,78.14
2023-11-28T23:51:37.309Z,78.20
2023-11-28T23:54:04.876Z,78.13
2023-11-28T23:56:34.414Z,78.21
2023-11-28T23:59:01.362Z,78.15
